sensor_id;sensor_type;location;lat;lon;timestamp;P1;durP1;ratioP1;P2;durP2;ratioP2
48987;SDS011;34799;51.440;-2.534;2023-09-19T00:00:41;10.68;;;1.63;;
48987;SDS011;34799;51.440;-2.534;2023-09-19T00:03:10;13.48;;;1.38;;
48987;SDS011;34799;51.440;-2.534;2023-09-19T00:05:39;12.00;;;1.58;;
48987;SDS011;34799;51.440;-2.534;2023-09-19T00:08:11;18.65;;;2.03;;
48987;SDS011;34799;51.440;-2.534;2023-09-19T00:10:40;12.73;;;1.40;;
48987;SDS011;34799;51.440;-2.534;2023-09-19T00:13:08;10.40;;;1.33;;
48987;SDS011;34799;51.440;-2.534;2023-09-19T00:15:41;12.80;;;1.73;;
48987;SDS011;34799;51.440;-2.534;2023-09-19T00:18:18;12.25;;;1.45;;
48987;SDS011;34799;51.440;-2.534;2023-09-19T00:20:58;10.13;;;2.08;;
48987;SDS011;34799;51.440;-2.534;2023-09-19T00:23:25;12.32;;;1.25;;
48987;SDS011;34799;51.440;-2.534;2023-09-19T00:25:53;15.88;;;1.85;;
48987;SDS011;34799;51.440;-2.534;2023-09-19T00:28:24;17.23;;;3.20;;
48987;SDS011;34799;51.440;-2.534;2023-09-19T00:30:52;10.85;;;1.60;;
48987;SDS011;34799;51.440;-2.534;2023-09-19T00:33:21;7.00;;;1.10;;
48987;SDS011;34799;51.440;-2.534;2023-09-19T00:35:49;12.90;;;1.48;;
48987;SDS011;34799;51.440;-2.534;2023-09-19T00:38:22;12.98;;;1.98;;
48987;SDS011;34799;51.440;-2.534;2023-09-19T00:40:53;13.85;;;1.55;;
48987;SDS011;34799;51.440;-2.534;2023-09-19T00:43:22;12.52;;;1.05;;
48987;SDS011;34799;51.440;-2.534;2023-09-19T00:45:52;13.10;;;1.40;;
48987;SDS011;34799;51.440;-2.534;2023-09-19T00:48:23;11.13;;;1.55;;
48987;SDS011;34799;51.440;-2.534;2023-09-19T00:50:53;11.60;;;1.60;;
48987;SDS011;34799;51.440;-2.534;2023-09-19T00:53:21;11.00;;;1.42;;
48987;SDS011;34799;51.440;-2.534;2023-09-19T00:55:50;14.35;;;1.60;;
48987;SDS011;34799;51.440;-2.534;2023-09-19T00:58:18;10.98;;;1.55;;
48987;SDS011;34799;51.440;-2.534;2023-09-19T01:00:46;15.30;;;1.52;;
48987;SDS011;34799;51.440;-2.534;2023-09-19T01:03:15;14.38;;;1.33;;
48987;SDS011;34799;51.440;-2.534;2023-09-19T01:05:45;9.50;;;1.00;;
48987;SDS011;34799;51.440;-2.534;2023-09-19T01:08:13;10.95;;;2.38;;
48987;SDS011;34799;51.440;-2.534;2023-09-19T01:10:55;15.35;;;1.02;;
48987;SDS011;34799;51.440;-2.534;2023-09-19T01:16:31;17.63;;;1.30;;
48987;SDS011;34799;51.440;-2.534;2023-09-19T01:19:19;12.20;;;0.80;;
48987;SDS011;34799;51.440;-2.534;2023-09-19T01:22:53;10.48;;;1.27;;
48987;SDS011;34799;51.440;-2.534;2023-09-19T01:30:40;16.02;;;1.30;;
48987;SDS011;34799;51.440;-2.534;2023-09-19T01:33:11;14.35;;;1.83;;
48987;SDS011;34799;51.440;-2.534;2023-09-19T01:35:39;9.02;;;1.30;;
48987;SDS011;34799;51.440;-2.534;2023-09-19T01:38:07;8.35;;;1.10;;
48987;SDS011;34799;51.440;-2.534;2023-09-19T01:40:40;12.70;;;1.40;;
48987;SDS011;34799;51.440;-2.534;2023-09-19T01:46:12;11.45;;;1.45;;
48987;SDS011;34799;51.440;-2.534;2023-09-19T01:48:57;10.85;;;1.08;;
48987;SDS011;34799;51.440;-2.534;2023-09-19T01:51:34;15.45;;;2.20;;
48987;SDS011;34799;51.440;-2.534;2023-09-19T01:54:11;14.45;;;1.73;;
48987;SDS011;34799;51.440;-2.534;2023-09-19T01:56:44;11.70;;;0.73;;
48987;SDS011;34799;51.440;-2.534;2023-09-19T01:59:20;10.90;;;1.20;;
48987;SDS011;34799;51.440;-2.534;2023-09-19T02:01:52;8.48;;;1.30;;
48987;SDS011;34799;51.440;-2.534;2023-09-19T02:04:21;15.40;;;1.63;;
48987;SDS011;34799;51.440;-2.534;2023-09-19T02:06:49;10.77;;;1.20;;
48987;SDS011;34799;51.440;-2.534;2023-09-19T02:09:18;8.45;;;1.08;;
48987;SDS011;34799;51.440;-2.534;2023-09-19T02:11:45;10.23;;;0.82;;
48987;SDS011;34799;51.440;-2.534;2023-09-19T02:14:13;12.13;;;1.15;;
48987;SDS011;34799;51.440;-2.534;2023-09-19T02:16:41;12.32;;;1.13;;
48987;SDS011;34799;51.440;-2.534;2023-09-19T02:19:08;10.55;;;1.02;;
48987;SDS011;34799;51.440;-2.534;2023-09-19T02:21:36;11.52;;;1.70;;
48987;SDS011;34799;51.440;-2.534;2023-09-19T02:24:06;7.22;;;1.40;;
48987;SDS011;34799;51.440;-2.534;2023-09-19T02:26:34;12.88;;;1.00;;
48987;SDS011;34799;51.440;-2.534;2023-09-19T02:29:05;10.00;;;0.85;;
48987;SDS011;34799;51.440;-2.534;2023-09-19T02:31:32;15.57;;;1.00;;
48987;SDS011;34799;51.440;-2.534;2023-09-19T02:34:00;10.52;;;0.88;;
48987;SDS011;34799;51.440;-2.534;2023-09-19T02:36:27;8.57;;;0.93;;
48987;SDS011;34799;51.440;-2.534;2023-09-19T02:38:54;10.65;;;1.30;;
48987;SDS011;34799;51.440;-2.534;2023-09-19T02:41:21;13.60;;;1.38;;
48987;SDS011;34799;51.440;-2.534;2023-09-19T02:43:48;8.98;;;1.38;;
48987;SDS011;34799;51.440;-2.534;2023-09-19T02:46:15;9.18;;;0.93;;
48987;SDS011;34799;51.440;-2.534;2023-09-19T02:48:43;6.85;;;0.60;;
48987;SDS011;34799;51.440;-2.534;2023-09-19T02:51:11;10.63;;;1.08;;
48987;SDS011;34799;51.440;-2.534;2023-09-19T02:53:40;10.40;;;1.13;;
48987;SDS011;34799;51.440;-2.534;2023-09-19T02:56:08;7.18;;;0.60;;
48987;SDS011;34799;51.440;-2.534;2023-09-19T02:58:38;13.68;;;0.98;;
48987;SDS011;34799;51.440;-2.534;2023-09-19T03:01:09;12.82;;;0.90;;
48987;SDS011;34799;51.440;-2.534;2023-09-19T03:03:39;10.35;;;1.30;;
48987;SDS011;34799;51.440;-2.534;2023-09-19T03:06:08;14.55;;;1.13;;
48987;SDS011;34799;51.440;-2.534;2023-09-19T03:08:36;6.75;;;0.70;;
48987;SDS011;34799;51.440;-2.534;2023-09-19T03:11:06;8.10;;;0.60;;
48987;SDS011;34799;51.440;-2.534;2023-09-19T03:13:35;9.00;;;0.50;;
48987;SDS011;34799;51.440;-2.534;2023-09-19T03:16:04;7.07;;;1.15;;
48987;SDS011;34799;51.440;-2.534;2023-09-19T03:18:35;8.15;;;1.38;;
48987;SDS011;34799;51.440;-2.534;2023-09-19T03:21:03;10.85;;;1.02;;
48987;SDS011;34799;51.440;-2.534;2023-09-19T03:23:31;8.30;;;1.00;;
48987;SDS011;34799;51.440;-2.534;2023-09-19T03:25:59;10.93;;;1.00;;
48987;SDS011;34799;51.440;-2.534;2023-09-19T03:28:27;10.20;;;0.98;;
48987;SDS011;34799;51.440;-2.534;2023-09-19T03:30:58;6.90;;;0.85;;
48987;SDS011;34799;51.440;-2.534;2023-09-19T03:33:27;12.25;;;0.90;;
48987;SDS011;34799;51.440;-2.534;2023-09-19T03:35:54;14.52;;;0.90;;
48987;SDS011;34799;51.440;-2.534;2023-09-19T03:38:25;9.55;;;0.70;;
48987;SDS011;34799;51.440;-2.534;2023-09-19T03:40:52;8.27;;;1.10;;
48987;SDS011;34799;51.440;-2.534;2023-09-19T03:43:19;9.20;;;0.75;;
48987;SDS011;34799;51.440;-2.534;2023-09-19T03:45:46;9.23;;;0.60;;
48987;SDS011;34799;51.440;-2.534;2023-09-19T03:48:13;6.65;;;0.50;;
48987;SDS011;34799;51.440;-2.534;2023-09-19T03:50:41;10.02;;;0.40;;
48987;SDS011;34799;51.440;-2.534;2023-09-19T03:53:10;12.50;;;0.50;;
48987;SDS011;34799;51.440;-2.534;2023-09-19T03:55:37;10.85;;;0.80;;
48987;SDS011;34799;51.440;-2.534;2023-09-19T03:58:07;9.23;;;0.57;;
48987;SDS011;34799;51.440;-2.534;2023-09-19T04:00:34;4.43;;;0.75;;
48987;SDS011;34799;51.440;-2.534;2023-09-19T04:03:03;11.18;;;0.68;;
48987;SDS011;34799;51.440;-2.534;2023-09-19T04:05:32;10.65;;;0.55;;
48987;SDS011;34799;51.440;-2.534;2023-09-19T04:08:00;3.50;;;0.32;;
48987;SDS011;34799;51.440;-2.534;2023-09-19T04:10:27;7.70;;;0.80;;
48987;SDS011;34799;51.440;-2.534;2023-09-19T04:12:55;8.23;;;0.77;;
48987;SDS011;34799;51.440;-2.534;2023-09-19T04:15:23;7.82;;;0.60;;
48987;SDS011;34799;51.440;-2.534;2023-09-19T04:17:53;5.90;;;0.55;;
48987;SDS011;34799;51.440;-2.534;2023-09-19T04:20:22;9.52;;;0.70;;
48987;SDS011;34799;51.440;-2.534;2023-09-19T04:22:50;5.95;;;0.40;;
48987;SDS011;34799;51.440;-2.534;2023-09-19T04:25:18;6.82;;;0.50;;
48987;SDS011;34799;51.440;-2.534;2023-09-19T04:27:48;6.68;;;0.50;;
48987;SDS011;34799;51.440;-2.534;2023-09-19T04:30:16;2.95;;;0.40;;
48987;SDS011;34799;51.440;-2.534;2023-09-19T04:32:44;5.53;;;0.40;;
48987;SDS011;34799;51.440;-2.534;2023-09-19T04:35:12;6.30;;;0.45;;
48987;SDS011;34799;51.440;-2.534;2023-09-19T04:37:40;6.45;;;0.30;;
48987;SDS011;34799;51.440;-2.534;2023-09-19T04:40:10;6.43;;;0.40;;
48987;SDS011;34799;51.440;-2.534;2023-09-19T04:42:42;4.55;;;0.52;;
48987;SDS011;34799;51.440;-2.534;2023-09-19T04:45:12;5.00;;;0.22;;
48987;SDS011;34799;51.440;-2.534;2023-09-19T04:47:41;4.43;;;0.20;;
48987;SDS011;34799;51.440;-2.534;2023-09-19T04:50:10;7.35;;;0.60;;
48987;SDS011;34799;51.440;-2.534;2023-09-19T04:52:39;7.45;;;1.45;;
48987;SDS011;34799;51.440;-2.534;2023-09-19T04:55:12;3.50;;;0.30;;
48987;SDS011;34799;51.440;-2.534;2023-09-19T04:57:44;7.50;;;0.55;;
48987;SDS011;34799;51.440;-2.534;2023-09-19T05:00:12;7.00;;;0.65;;
48987;SDS011;34799;51.440;-2.534;2023-09-19T05:02:55;7.78;;;0.50;;
48987;SDS011;34799;51.440;-2.534;2023-09-19T05:05:24;3.67;;;0.73;;
48987;SDS011;34799;51.440;-2.534;2023-09-19T05:07:52;2.85;;;0.20;;
48987;SDS011;34799;51.440;-2.534;2023-09-19T05:10:20;4.70;;;0.40;;
48987;SDS011;34799;51.440;-2.534;2023-09-19T05:12:48;4.00;;;0.30;;
48987;SDS011;34799;51.440;-2.534;2023-09-19T05:15:18;3.85;;;0.30;;
48987;SDS011;34799;51.440;-2.534;2023-09-19T05:17:51;4.57;;;0.70;;
48987;SDS011;34799;51.440;-2.534;2023-09-19T05:20:23;4.43;;;0.38;;
48987;SDS011;34799;51.440;-2.534;2023-09-19T05:23:02;2.40;;;0.30;;
48987;SDS011;34799;51.440;-2.534;2023-09-19T05:25:33;3.15;;;0.38;;
48987;SDS011;34799;51.440;-2.534;2023-09-19T05:28:06;3.47;;;0.35;;
48987;SDS011;34799;51.440;-2.534;2023-09-19T05:30:34;4.25;;;0.35;;
48987;SDS011;34799;51.440;-2.534;2023-09-19T05:33:06;4.03;;;0.38;;
48987;SDS011;34799;51.440;-2.534;2023-09-19T05:35:35;2.60;;;0.20;;
48987;SDS011;34799;51.440;-2.534;2023-09-19T05:38:08;4.60;;;0.40;;
48987;SDS011;34799;51.440;-2.534;2023-09-19T05:40:35;3.20;;;0.43;;
48987;SDS011;34799;51.440;-2.534;2023-09-19T05:43:04;2.95;;;0.57;;
48987;SDS011;34799;51.440;-2.534;2023-09-19T05:45:32;7.45;;;0.50;;
48987;SDS011;34799;51.440;-2.534;2023-09-19T05:48:07;5.40;;;0.85;;
48987;SDS011;34799;51.440;-2.534;2023-09-19T05:50:36;4.85;;;0.35;;
48987;SDS011;34799;51.440;-2.534;2023-09-19T05:53:03;6.82;;;0.47;;
48987;SDS011;34799;51.440;-2.534;2023-09-19T05:55:31;9.55;;;0.73;;
48987;SDS011;34799;51.440;-2.534;2023-09-19T05:57:59;7.28;;;0.82;;
48987;SDS011;34799;51.440;-2.534;2023-09-19T06:00:26;5.78;;;1.17;;
48987;SDS011;34799;51.440;-2.534;2023-09-19T06:02:58;9.95;;;0.93;;
48987;SDS011;34799;51.440;-2.534;2023-09-19T06:05:26;6.53;;;0.60;;
48987;SDS011;34799;51.440;-2.534;2023-09-19T06:07:55;7.65;;;0.88;;
48987;SDS011;34799;51.440;-2.534;2023-09-19T06:10:23;5.70;;;0.88;;
48987;SDS011;34799;51.440;-2.534;2023-09-19T06:12:52;8.00;;;0.90;;
48987;SDS011;34799;51.440;-2.534;2023-09-19T06:15:20;7.28;;;1.42;;
48987;SDS011;34799;51.440;-2.534;2023-09-19T06:17:52;10.48;;;0.90;;
48987;SDS011;34799;51.440;-2.534;2023-09-19T06:20:27;6.32;;;1.00;;
48987;SDS011;34799;51.440;-2.534;2023-09-19T06:22:55;8.07;;;1.45;;
48987;SDS011;34799;51.440;-2.534;2023-09-19T06:25:23;9.60;;;1.45;;
48987;SDS011;34799;51.440;-2.534;2023-09-19T06:27:51;7.93;;;1.38;;
48987;SDS011;34799;51.440;-2.534;2023-09-19T06:30:21;9.50;;;1.13;;
48987;SDS011;34799;51.440;-2.534;2023-09-19T06:32:56;6.80;;;1.02;;
48987;SDS011;34799;51.440;-2.534;2023-09-19T06:35:25;8.07;;;0.85;;
48987;SDS011;34799;51.440;-2.534;2023-09-19T06:37:52;7.82;;;0.98;;
48987;SDS011;34799;51.440;-2.534;2023-09-19T06:40:20;7.40;;;1.40;;
48987;SDS011;34799;51.440;-2.534;2023-09-19T06:42:50;9.93;;;1.05;;
48987;SDS011;34799;51.440;-2.534;2023-09-19T06:45:19;8.18;;;1.15;;
48987;SDS011;34799;51.440;-2.534;2023-09-19T06:47:48;6.72;;;1.02;;
48987;SDS011;34799;51.440;-2.534;2023-09-19T06:50:18;9.82;;;1.20;;
48987;SDS011;34799;51.440;-2.534;2023-09-19T06:52:52;8.52;;;1.52;;
48987;SDS011;34799;51.440;-2.534;2023-09-19T06:55:22;9.20;;;1.67;;
48987;SDS011;34799;51.440;-2.534;2023-09-19T06:57:54;12.38;;;1.38;;
48987;SDS011;34799;51.440;-2.534;2023-09-19T07:00:21;12.68;;;1.52;;
48987;SDS011;34799;51.440;-2.534;2023-09-19T07:05:27;10.68;;;1.75;;
48987;SDS011;34799;51.440;-2.534;2023-09-19T07:07:55;11.38;;;2.05;;
48987;SDS011;34799;51.440;-2.534;2023-09-19T07:10:22;12.82;;;1.70;;
48987;SDS011;34799;51.440;-2.534;2023-09-19T07:12:57;11.05;;;1.65;;
48987;SDS011;34799;51.440;-2.534;2023-09-19T07:15:26;11.32;;;1.90;;
48987;SDS011;34799;51.440;-2.534;2023-09-19T07:17:54;15.73;;;2.05;;
48987;SDS011;34799;51.440;-2.534;2023-09-19T07:20:23;14.32;;;2.15;;
48987;SDS011;34799;51.440;-2.534;2023-09-19T07:22:53;10.52;;;1.88;;
48987;SDS011;34799;51.440;-2.534;2023-09-19T07:25:27;13.05;;;2.25;;
48987;SDS011;34799;51.440;-2.534;2023-09-19T07:27:56;13.50;;;2.30;;
48987;SDS011;34799;51.440;-2.534;2023-09-19T07:30:26;11.77;;;2.00;;
48987;SDS011;34799;51.440;-2.534;2023-09-19T07:32:54;15.38;;;2.45;;
48987;SDS011;34799;51.440;-2.534;2023-09-19T07:35:21;13.95;;;2.00;;
48987;SDS011;34799;51.440;-2.534;2023-09-19T07:37:49;11.38;;;2.15;;
48987;SDS011;34799;51.440;-2.534;2023-09-19T07:40:18;14.93;;;2.22;;
48987;SDS011;34799;51.440;-2.534;2023-09-19T07:42:46;12.95;;;1.95;;
48987;SDS011;34799;51.440;-2.534;2023-09-19T07:45:13;16.63;;;2.28;;
48987;SDS011;34799;51.440;-2.534;2023-09-19T07:47:44;11.77;;;2.63;;
48987;SDS011;34799;51.440;-2.534;2023-09-19T07:50:16;18.42;;;3.00;;
48987;SDS011;34799;51.440;-2.534;2023-09-19T07:52:48;21.58;;;3.28;;
48987;SDS011;34799;51.440;-2.534;2023-09-19T07:55:21;14.43;;;2.28;;
48987;SDS011;34799;51.440;-2.534;2023-09-19T07:57:52;12.15;;;2.22;;
48987;SDS011;34799;51.440;-2.534;2023-09-19T08:00:19;12.63;;;2.90;;
48987;SDS011;34799;51.440;-2.534;2023-09-19T08:02:47;15.65;;;2.75;;
48987;SDS011;34799;51.440;-2.534;2023-09-19T08:05:14;17.92;;;2.83;;
48987;SDS011;34799;51.440;-2.534;2023-09-19T08:07:44;14.27;;;2.65;;
48987;SDS011;34799;51.440;-2.534;2023-09-19T08:10:15;14.68;;;2.97;;
48987;SDS011;34799;51.440;-2.534;2023-09-19T08:12:46;16.88;;;2.28;;
48987;SDS011;34799;51.440;-2.534;2023-09-19T08:15:15;15.65;;;2.92;;
48987;SDS011;34799;51.440;-2.534;2023-09-19T08:17:43;17.77;;;2.95;;
48987;SDS011;34799;51.440;-2.534;2023-09-19T08:20:10;15.05;;;2.97;;
48987;SDS011;34799;51.440;-2.534;2023-09-19T08:22:52;11.02;;;2.15;;
48987;SDS011;34799;51.440;-2.534;2023-09-19T08:25:22;13.95;;;2.03;;
48987;SDS011;34799;51.440;-2.534;2023-09-19T08:27:53;13.85;;;2.28;;
48987;SDS011;34799;51.440;-2.534;2023-09-19T08:30:24;10.80;;;2.40;;
48987;SDS011;34799;51.440;-2.534;2023-09-19T08:32:58;17.38;;;2.53;;
48987;SDS011;34799;51.440;-2.534;2023-09-19T08:35:26;13.05;;;2.55;;
48987;SDS011;34799;51.440;-2.534;2023-09-19T08:37:54;21.40;;;2.70;;
48987;SDS011;34799;51.440;-2.534;2023-09-19T08:40:22;11.63;;;2.25;;
48987;SDS011;34799;51.440;-2.534;2023-09-19T08:42:50;15.90;;;2.53;;
48987;SDS011;34799;51.440;-2.534;2023-09-19T08:45:20;15.18;;;2.10;;
48987;SDS011;34799;51.440;-2.534;2023-09-19T08:50:47;12.48;;;2.35;;
48987;SDS011;34799;51.440;-2.534;2023-09-19T08:53:26;13.93;;;2.40;;
48987;SDS011;34799;51.440;-2.534;2023-09-19T08:55:59;14.95;;;2.13;;
48987;SDS011;34799;51.440;-2.534;2023-09-19T08:58:31;18.08;;;2.15;;
48987;SDS011;34799;51.440;-2.534;2023-09-19T09:01:07;14.75;;;2.83;;
48987;SDS011;34799;51.440;-2.534;2023-09-19T09:03:37;13.43;;;2.42;;
48987;SDS011;34799;51.440;-2.534;2023-09-19T09:06:12;10.43;;;1.80;;
48987;SDS011;34799;51.440;-2.534;2023-09-19T09:08:42;16.52;;;2.00;;
48987;SDS011;34799;51.440;-2.534;2023-09-19T09:11:11;11.32;;;2.15;;
48987;SDS011;34799;51.440;-2.534;2023-09-19T09:13:40;14.98;;;2.03;;
48987;SDS011;34799;51.440;-2.534;2023-09-19T09:16:08;14.50;;;2.40;;
48987;SDS011;34799;51.440;-2.534;2023-09-19T09:18:36;12.52;;;2.60;;
48987;SDS011;34799;51.440;-2.534;2023-09-19T09:21:03;14.43;;;2.53;;
48987;SDS011;34799;51.440;-2.534;2023-09-19T09:23:31;9.60;;;2.00;;
48987;SDS011;34799;51.440;-2.534;2023-09-19T09:26:01;7.20;;;1.50;;
48987;SDS011;34799;51.440;-2.534;2023-09-19T09:28:33;12.88;;;2.03;;
48987;SDS011;34799;51.440;-2.534;2023-09-19T09:31:05;10.68;;;1.80;;
48987;SDS011;34799;51.440;-2.534;2023-09-19T09:33:37;8.43;;;1.73;;
48987;SDS011;34799;51.440;-2.534;2023-09-19T09:36:07;7.50;;;1.23;;
48987;SDS011;34799;51.440;-2.534;2023-09-19T09:41:13;7.18;;;1.13;;
48987;SDS011;34799;51.440;-2.534;2023-09-19T09:43:53;8.35;;;1.65;;
48987;SDS011;34799;51.440;-2.534;2023-09-19T09:46:21;11.90;;;2.20;;
48987;SDS011;34799;51.440;-2.534;2023-09-19T09:51:45;9.25;;;2.03;;
48987;SDS011;34799;51.440;-2.534;2023-09-19T09:54:26;8.18;;;1.63;;
48987;SDS011;34799;51.440;-2.534;2023-09-19T09:57:00;7.82;;;1.60;;
48987;SDS011;34799;51.440;-2.534;2023-09-19T10:02:21;6.93;;;0.88;;
48987;SDS011;34799;51.440;-2.534;2023-09-19T10:04:56;3.38;;;1.02;;
48987;SDS011;34799;51.440;-2.534;2023-09-19T10:07:42;5.93;;;1.10;;
48987;SDS011;34799;51.440;-2.534;2023-09-19T10:10:34;8.00;;;0.90;;
48987;SDS011;34799;51.440;-2.534;2023-09-19T10:13:28;4.90;;;1.00;;
48987;SDS011;34799;51.440;-2.534;2023-09-19T10:16:00;8.00;;;0.80;;
48987;SDS011;34799;51.440;-2.534;2023-09-19T10:18:38;4.75;;;1.17;;
48987;SDS011;34799;51.440;-2.534;2023-09-19T10:21:10;3.60;;;0.65;;
48987;SDS011;34799;51.440;-2.534;2023-09-19T10:23:38;4.80;;;1.00;;
48987;SDS011;34799;51.440;-2.534;2023-09-19T10:26:10;4.38;;;0.50;;
48987;SDS011;34799;51.440;-2.534;2023-09-19T10:28:43;6.82;;;0.68;;
48987;SDS011;34799;51.440;-2.534;2023-09-19T10:31:19;5.88;;;0.60;;
48987;SDS011;34799;51.440;-2.534;2023-09-19T10:33:51;4.05;;;0.52;;
48987;SDS011;34799;51.440;-2.534;2023-09-19T10:36:25;3.08;;;0.77;;
48987;SDS011;34799;51.440;-2.534;2023-09-19T10:38:54;4.47;;;0.47;;
48987;SDS011;34799;51.440;-2.534;2023-09-19T10:41:24;2.72;;;0.40;;
48987;SDS011;34799;51.440;-2.534;2023-09-19T10:43:54;3.90;;;0.50;;
48987;SDS011;34799;51.440;-2.534;2023-09-19T10:46:23;5.80;;;0.50;;
48987;SDS011;34799;51.440;-2.534;2023-09-19T10:48:51;3.30;;;0.30;;
48987;SDS011;34799;51.440;-2.534;2023-09-19T10:51:22;2.05;;;0.30;;
48987;SDS011;34799;51.440;-2.534;2023-09-19T10:54:05;3.95;;;0.40;;
48987;SDS011;34799;51.440;-2.534;2023-09-19T10:56:46;2.80;;;0.40;;
48987;SDS011;34799;51.440;-2.534;2023-09-19T10:59:18;0.95;;;0.20;;
48987;SDS011;34799;51.440;-2.534;2023-09-19T11:01:52;2.35;;;0.30;;
48987;SDS011;34799;51.440;-2.534;2023-09-19T11:04:32;4.30;;;0.40;;
48987;SDS011;34799;51.440;-2.534;2023-09-19T11:15:02;1.15;;;0.17;;
48987;SDS011;34799;51.440;-2.534;2023-09-19T11:17:35;1.38;;;0.10;;
48987;SDS011;34799;51.440;-2.534;2023-09-19T11:20:16;1.08;;;0.13;;
48987;SDS011;34799;51.440;-2.534;2023-09-19T11:30:36;2.33;;;0.52;;
48987;SDS011;34799;51.440;-2.534;2023-09-19T11:36:00;1.75;;;0.10;;
48987;SDS011;34799;51.440;-2.534;2023-09-19T11:46:53;1.55;;;0.10;;
48987;SDS011;34799;51.440;-2.534;2023-09-19T11:49:28;2.45;;;0.30;;
48987;SDS011;34799;51.440;-2.534;2023-09-19T11:51:59;2.80;;;0.20;;
48987;SDS011;34799;51.440;-2.534;2023-09-19T11:54:31;1.75;;;0.30;;
48987;SDS011;34799;51.440;-2.534;2023-09-19T11:56:59;1.73;;;0.20;;
48987;SDS011;34799;51.440;-2.534;2023-09-19T11:59:28;1.50;;;0.10;;
48987;SDS011;34799;51.440;-2.534;2023-09-19T12:02:01;2.42;;;0.30;;
48987;SDS011;34799;51.440;-2.534;2023-09-19T12:04:41;3.08;;;0.20;;
48987;SDS011;34799;51.440;-2.534;2023-09-19T12:07:11;1.08;;;0.30;;
48987;SDS011;34799;51.440;-2.534;2023-09-19T12:09:43;2.00;;;0.22;;
48987;SDS011;34799;51.440;-2.534;2023-09-19T12:12:20;1.55;;;0.10;;
48987;SDS011;34799;51.440;-2.534;2023-09-19T12:14:54;2.45;;;0.20;;
48987;SDS011;34799;51.440;-2.534;2023-09-19T12:17:40;2.25;;;0.30;;
48987;SDS011;34799;51.440;-2.534;2023-09-19T12:20:09;1.48;;;0.20;;
48987;SDS011;34799;51.440;-2.534;2023-09-19T12:22:41;5.68;;;0.40;;
48987;SDS011;34799;51.440;-2.534;2023-09-19T12:25:10;1.73;;;0.20;;
48987;SDS011;34799;51.440;-2.534;2023-09-19T12:27:45;2.08;;;0.20;;
48987;SDS011;34799;51.440;-2.534;2023-09-19T12:30:14;4.15;;;0.30;;
48987;SDS011;34799;51.440;-2.534;2023-09-19T12:32:48;1.65;;;0.30;;
48987;SDS011;34799;51.440;-2.534;2023-09-19T12:35:29;2.55;;;0.20;;
48987;SDS011;34799;51.440;-2.534;2023-09-19T12:37:57;2.42;;;0.20;;
48987;SDS011;34799;51.440;-2.534;2023-09-19T12:40:24;3.42;;;0.20;;
48987;SDS011;34799;51.440;-2.534;2023-09-19T12:42:55;3.42;;;0.82;;
48987;SDS011;34799;51.440;-2.534;2023-09-19T12:45:22;1.75;;;0.32;;
48987;SDS011;34799;51.440;-2.534;2023-09-19T12:53:40;3.78;;;0.38;;
48987;SDS011;34799;51.440;-2.534;2023-09-19T12:56:12;4.03;;;0.55;;
48987;SDS011;34799;51.440;-2.534;2023-09-19T12:58:49;2.03;;;0.20;;
48987;SDS011;34799;51.440;-2.534;2023-09-19T13:01:25;2.55;;;0.32;;
48987;SDS011;34799;51.440;-2.534;2023-09-19T13:06:47;5.72;;;0.85;;
48987;SDS011;34799;51.440;-2.534;2023-09-19T13:09:16;4.78;;;0.22;;
48987;SDS011;34799;51.440;-2.534;2023-09-19T13:11:44;1.38;;;0.20;;
48987;SDS011;34799;51.440;-2.534;2023-09-19T13:14:27;3.20;;;0.60;;
48987;SDS011;34799;51.440;-2.534;2023-09-19T13:19:48;7.07;;;0.40;;
48987;SDS011;34799;51.440;-2.534;2023-09-19T13:22:38;4.47;;;0.70;;
48987;SDS011;34799;51.440;-2.534;2023-09-19T13:25:12;4.13;;;0.60;;
48987;SDS011;34799;51.440;-2.534;2023-09-19T13:27:42;4.95;;;0.60;;
48987;SDS011;34799;51.440;-2.534;2023-09-19T13:30:11;5.28;;;0.40;;
48987;SDS011;34799;51.440;-2.534;2023-09-19T13:32:39;4.43;;;0.40;;
48987;SDS011;34799;51.440;-2.534;2023-09-19T13:35:09;4.78;;;0.63;;
48987;SDS011;34799;51.440;-2.534;2023-09-19T13:37:38;5.47;;;1.00;;
48987;SDS011;34799;51.440;-2.534;2023-09-19T13:40:12;9.52;;;0.90;;
48987;SDS011;34799;51.440;-2.534;2023-09-19T13:42:40;4.68;;;0.52;;
48987;SDS011;34799;51.440;-2.534;2023-09-19T13:45:08;4.75;;;0.70;;
48987;SDS011;34799;51.440;-2.534;2023-09-19T13:47:38;5.78;;;0.90;;
48987;SDS011;34799;51.440;-2.534;2023-09-19T13:50:06;4.78;;;0.73;;
48987;SDS011;34799;51.440;-2.534;2023-09-19T13:52:34;4.40;;;0.98;;
48987;SDS011;34799;51.440;-2.534;2023-09-19T13:55:01;8.00;;;0.95;;
48987;SDS011;34799;51.440;-2.534;2023-09-19T13:57:28;10.38;;;0.95;;
48987;SDS011;34799;51.440;-2.534;2023-09-19T13:59:56;4.75;;;0.98;;
48987;SDS011;34799;51.440;-2.534;2023-09-19T14:02:23;8.50;;;0.75;;
48987;SDS011;34799;51.440;-2.534;2023-09-19T14:04:51;11.25;;;0.90;;
48987;SDS011;34799;51.440;-2.534;2023-09-19T14:07:19;7.13;;;0.90;;
48987;SDS011;34799;51.440;-2.534;2023-09-19T14:09:47;6.10;;;1.40;;
48987;SDS011;34799;51.440;-2.534;2023-09-19T14:12:15;16.35;;;1.42;;
48987;SDS011;34799;51.440;-2.534;2023-09-19T14:14:42;7.47;;;1.40;;
48987;SDS011;34799;51.440;-2.534;2023-09-19T14:17:11;7.57;;;1.23;;
48987;SDS011;34799;51.440;-2.534;2023-09-19T14:19:40;8.82;;;0.85;;
48987;SDS011;34799;51.440;-2.534;2023-09-19T14:22:11;8.10;;;1.08;;
48987;SDS011;34799;51.440;-2.534;2023-09-19T14:24:41;8.10;;;0.80;;
48987;SDS011;34799;51.440;-2.534;2023-09-19T14:27:09;10.05;;;1.25;;
48987;SDS011;34799;51.440;-2.534;2023-09-19T14:29:37;3.80;;;1.02;;
48987;SDS011;34799;51.440;-2.534;2023-09-19T14:32:05;9.45;;;1.10;;
48987;SDS011;34799;51.440;-2.534;2023-09-19T14:34:33;6.63;;;1.55;;
48987;SDS011;34799;51.440;-2.534;2023-09-19T14:37:01;4.22;;;0.52;;
48987;SDS011;34799;51.440;-2.534;2023-09-19T14:39:29;6.38;;;0.50;;
48987;SDS011;34799;51.440;-2.534;2023-09-19T14:41:56;5.50;;;1.10;;
48987;SDS011;34799;51.440;-2.534;2023-09-19T14:44:24;8.15;;;1.00;;
48987;SDS011;34799;51.440;-2.534;2023-09-19T14:46:52;7.03;;;0.75;;
48987;SDS011;34799;51.440;-2.534;2023-09-19T14:49:21;8.45;;;0.80;;
48987;SDS011;34799;51.440;-2.534;2023-09-19T14:51:49;3.70;;;0.45;;
48987;SDS011;34799;51.440;-2.534;2023-09-19T14:54:18;4.55;;;0.50;;
48987;SDS011;34799;51.440;-2.534;2023-09-19T14:56:46;6.43;;;0.77;;
48987;SDS011;34799;51.440;-2.534;2023-09-19T14:59:21;4.30;;;0.28;;
48987;SDS011;34799;51.440;-2.534;2023-09-19T15:01:49;3.42;;;0.38;;
48987;SDS011;34799;51.440;-2.534;2023-09-19T15:04:17;1.30;;;0.20;;
48987;SDS011;34799;51.440;-2.534;2023-09-19T15:06:45;3.15;;;0.50;;
48987;SDS011;34799;51.440;-2.534;2023-09-19T15:09:13;1.83;;;0.20;;
48987;SDS011;34799;51.440;-2.534;2023-09-19T15:11:41;3.28;;;0.40;;
48987;SDS011;34799;51.440;-2.534;2023-09-19T15:14:09;2.17;;;0.10;;
48987;SDS011;34799;51.440;-2.534;2023-09-19T15:16:37;1.95;;;0.22;;
48987;SDS011;34799;51.440;-2.534;2023-09-19T15:19:05;2.55;;;0.38;;
48987;SDS011;34799;51.440;-2.534;2023-09-19T15:21:34;1.98;;;0.30;;
48987;SDS011;34799;51.440;-2.534;2023-09-19T15:24:03;2.80;;;0.30;;
48987;SDS011;34799;51.440;-2.534;2023-09-19T15:26:31;3.08;;;0.30;;
48987;SDS011;34799;51.440;-2.534;2023-09-19T15:28:59;4.72;;;0.52;;
48987;SDS011;34799;51.440;-2.534;2023-09-19T15:31:27;3.33;;;0.30;;
48987;SDS011;34799;51.440;-2.534;2023-09-19T15:33:55;4.40;;;0.60;;
48987;SDS011;34799;51.440;-2.534;2023-09-19T15:36:23;9.98;;;0.98;;
48987;SDS011;34799;51.440;-2.534;2023-09-19T15:41:35;3.50;;;0.50;;
48987;SDS011;34799;51.440;-2.534;2023-09-19T15:44:04;6.07;;;0.80;;
48987;SDS011;34799;51.440;-2.534;2023-09-19T15:46:42;3.17;;;0.60;;
48987;SDS011;34799;51.440;-2.534;2023-09-19T15:49:11;5.40;;;0.50;;
48987;SDS011;34799;51.440;-2.534;2023-09-19T15:51:39;4.03;;;0.65;;
48987;SDS011;34799;51.440;-2.534;2023-09-19T15:54:10;5.38;;;0.90;;
48987;SDS011;34799;51.440;-2.534;2023-09-19T15:56:42;5.20;;;0.50;;